createdAt,value
2023-09-06T00:01:47.351Z,18.60
2023-09-06T00:04:18.213Z,18.53
2023-09-06T00:06:49.694Z,18.52
2023-09-06T00:09:18.530Z,18.48
2023-09-06T00:11:50.712Z,18.48
2023-09-06T00:14:20.652Z,18.42
2023-09-06T00:16:48.898Z,18.42
2023-09-06T00:19:18.714Z,18.36
2023-09-06T00:21:49.036Z,18.32
2023-09-06T00:24:17.156Z,18.23
2023-09-06T00:26:45.574Z,18.19
2023-09-06T00:29:15.406Z,18.18
2023-09-06T00:31:45.798Z,18.14
2023-09-06T00:34:16.453Z,18.10
2023-09-06T00:36:48.136Z,18.05
2023-09-06T00:39:18.999Z,18.00
2023-09-06T00:41:47.452Z,17.93
2023-09-06T00:44:17.944Z,17.88
2023-09-06T00:46:46.961Z,17.88
2023-09-06T00:49:18.292Z,17.86
2023-09-06T00:51:46.443Z,17.87
2023-09-06T00:54:17.086Z,17.86
2023-09-06T00:56:47.432Z,17.82
2023-09-06T00:59:22.860Z,17.80
2023-09-06T01:01:55.381Z,17.79
2023-09-06T01:04:26.132Z,17.74
2023-09-06T01:06:58.622Z,17.74
2023-09-06T01:09:30.508Z,17.76
2023-09-06T01:12:00.156Z,17.78
2023-09-06T01:14:33.947Z,17.73
2023-09-06T01:17:03.364Z,17.71
2023-09-06T01:19:36.609Z,17.70
2023-09-06T01:22:11.993Z,17.61
2023-09-06T01:24:41.715Z,17.60
2023-09-06T01:27:10.809Z,17.52
2023-09-06T01:29:39.661Z,17.51
2023-09-06T01:32:08.186Z,17.50
2023-09-06T01:34:36.452Z,17.48
2023-09-06T01:37:04.866Z,17.47
2023-09-06T01:39:37.056Z,17.47
2023-09-06T01:42:06.898Z,17.40
2023-09-06T01:44:35.253Z,17.40
2023-09-06T01:47:06.249Z,17.38
2023-09-06T01:49:35.131Z,17.38
2023-09-06T01:52:06.621Z,17.39
2023-09-06T01:54:35.110Z,17.38
2023-09-06T01:57:03.880Z,17.37
2023-09-06T01:59:34.016Z,17.35
2023-09-06T02:02:02.392Z,17.29
2023-09-06T02:04:31.624Z,17.28
2023-09-06T02:07:07.687Z,17.28
2023-09-06T02:09:39.047Z,17.22
2023-09-06T02:12:07.719Z,17.21
2023-09-06T02:14:38.953Z,17.15
2023-09-06T02:17:08.391Z,17.14
2023-09-06T02:19:38.055Z,17.12
2023-09-06T02:22:08.663Z,17.10
2023-09-06T02:24:38.250Z,17.07
2023-09-06T02:27:07.084Z,17.05
2023-09-06T02:29:35.413Z,17.05
2023-09-06T02:32:08.164Z,17.07
2023-09-06T02:34:37.121Z,17.07
2023-09-06T02:37:05.965Z,17.07
2023-09-06T02:39:35.191Z,17.07
2023-09-06T02:42:03.897Z,17.04
2023-09-06T02:44:31.809Z,17.03
2023-09-06T02:47:10.069Z,17.00
2023-09-06T02:49:43.238Z,16.97
2023-09-06T02:52:22.267Z,16.92
2023-09-06T02:54:50.857Z,16.89
2023-09-06T02:57:19.778Z,16.84
2023-09-06T02:59:53.067Z,16.83
2023-09-06T03:02:30.924Z,16.80
2023-09-06T03:05:05.302Z,16.79
2023-09-06T03:07:35.309Z,16.77
2023-09-06T03:10:07.905Z,16.74
2023-09-06T03:12:36.535Z,16.72
2023-09-06T03:15:12.309Z,16.68
2023-09-06T03:17:41.370Z,16.63
2023-09-06T03:20:20.277Z,16.59
2023-09-06T03:22:49.021Z,16.56
2023-09-06T03:25:21.779Z,16.55
2023-09-06T03:27:50.247Z,16.50
2023-09-06T03:30:20.803Z,16.48
2023-09-06T03:32:51.223Z,16.46
2023-09-06T03:35:24.161Z,16.43
2023-09-06T03:37:54.664Z,16.40
2023-09-06T03:40:36.016Z,16.38
2023-09-06T03:43:15.975Z,16.37
2023-09-06T03:45:47.004Z,16.37
2023-09-06T03:48:19.163Z,16.34
2023-09-06T03:50:53.000Z,16.33
2023-09-06T03:53:21.637Z,16.32
2023-09-06T03:55:50.783Z,16.27
2023-09-06T03:58:20.630Z,16.22
2023-09-06T04:00:52.847Z,16.20
2023-09-06T04:03:27.798Z,16.18
2023-09-06T04:06:04.895Z,16.17
2023-09-06T04:08:38.261Z,16.17
2023-09-06T04:11:06.613Z,16.20
2023-09-06T04:13:36.100Z,16.21
2023-09-06T04:16:07.072Z,16.19
2023-09-06T04:18:37.659Z,16.16
2023-09-06T04:21:10.218Z,16.11
2023-09-06T04:23:41.971Z,16.07
2023-09-06T04:26:17.918Z,16.03
2023-09-06T04:28:49.173Z,15.98
2023-09-06T04:31:22.534Z,15.95
2023-09-06T04:33:53.454Z,15.94
2023-09-06T04:36:25.089Z,15.94
2023-09-06T04:39:00.712Z,15.92
2023-09-06T04:41:35.380Z,15.89
2023-09-06T04:44:07.897Z,15.88
2023-09-06T04:46:36.438Z,15.86
2023-09-06T04:49:05.580Z,15.86
2023-09-06T04:51:40.262Z,15.84
2023-09-06T04:54:11.544Z,15.84
2023-09-06T04:56:42.136Z,15.82
2023-09-06T04:59:10.850Z,15.83
2023-09-06T05:01:44.056Z,15.83
2023-09-06T05:04:16.117Z,15.84
2023-09-06T05:06:47.456Z,15.85
2023-09-06T05:09:18.923Z,15.89
2023-09-06T05:11:51.020Z,15.89
2023-09-06T05:14:20.492Z,15.90
2023-09-06T05:16:48.720Z,15.91
2023-09-06T05:19:22.479Z,15.89
2023-09-06T05:21:52.276Z,15.89
2023-09-06T05:24:21.409Z,15.90
2023-09-06T05:26:50.141Z,15.92
2023-09-06T05:29:24.285Z,15.94
2023-09-06T05:31:54.881Z,15.99
2023-09-06T05:34:24.764Z,16.02
2023-09-06T05:36:55.762Z,16.02
2023-09-06T05:39:25.921Z,16.06
2023-09-06T05:41:56.057Z,16.07
2023-09-06T05:44:26.813Z,16.09
2023-09-06T05:46:55.142Z,16.11
2023-09-06T05:49:25.365Z,16.17
2023-09-06T05:51:55.350Z,16.24
2023-09-06T05:54:23.598Z,16.29
2023-09-06T05:56:55.643Z,16.35
2023-09-06T05:59:24.915Z,16.40
2023-09-06T06:01:54.995Z,16.46
2023-09-06T06:04:25.431Z,16.53
2023-09-06T06:06:57.881Z,16.58
2023-09-06T06:09:26.821Z,16.68
2023-09-06T06:11:56.910Z,16.74
2023-09-06T06:14:31.146Z,16.82
2023-09-06T06:17:00.611Z,16.87
2023-09-06T06:19:31.055Z,16.92
2023-09-06T06:22:04.511Z,16.96
2023-09-06T06:24:36.179Z,17.02
2023-09-06T06:27:05.554Z,17.09
2023-09-06T06:29:34.086Z,17.15
2023-09-06T06:32:03.728Z,17.22
2023-09-06T06:34:31.790Z,17.27
2023-09-06T06:37:06.074Z,17.35
2023-09-06T06:39:34.799Z,17.42
2023-09-06T06:42:02.749Z,17.50
2023-09-06T06:44:35.891Z,17.59
2023-09-06T06:47:05.769Z,17.67
2023-09-06T06:49:34.172Z,17.76
2023-09-06T06:52:02.506Z,17.84
2023-09-06T06:54:34.027Z,17.93
2023-09-06T06:57:04.654Z,18.01
2023-09-06T06:59:36.293Z,18.10
2023-09-06T07:02:07.230Z,18.20
2023-09-06T07:04:35.338Z,18.29
2023-09-06T07:07:05.068Z,18.39
2023-09-06T07:09:38.330Z,18.44
2023-09-06T07:12:06.809Z,18.52
2023-09-06T07:14:36.174Z,18.61
2023-09-06T07:17:04.716Z,18.66
2023-09-06T07:19:35.105Z,18.74
2023-09-06T07:22:07.113Z,18.83
2023-09-06T07:24:39.603Z,18.93
2023-09-06T07:27:07.743Z,18.99
2023-09-06T07:29:35.971Z,19.06
2023-09-06T07:32:05.585Z,19.15
2023-09-06T07:34:34.040Z,19.23
2023-09-06T07:37:03.690Z,19.33
2023-09-06T07:39:33.711Z,19.40
2023-09-06T07:42:05.252Z,19.49
2023-09-06T07:44:34.156Z,19.59
2023-09-06T07:47:05.064Z,19.67
2023-09-06T07:49:33.180Z,19.76
2023-09-06T07:52:06.594Z,19.85
2023-09-06T07:54:35.001Z,19.93
2023-09-06T07:57:09.809Z,20.01
2023-09-06T07:59:38.015Z,20.08
2023-09-06T08:02:06.474Z,20.20
2023-09-06T08:04:37.046Z,20.29
2023-09-06T08:07:05.684Z,20.37
2023-09-06T08:09:35.081Z,20.49
2023-09-06T08:12:06.698Z,20.58
2023-09-06T08:14:36.225Z,20.65
2023-09-06T08:17:05.109Z,20.75
2023-09-06T08:19:34.218Z,20.84
2023-09-06T08:22:03.260Z,20.96
2023-09-06T08:24:33.690Z,21.09
2023-09-06T08:27:07.104Z,21.19
2023-09-06T08:29:40.176Z,21.29
2023-09-06T08:32:09.637Z,21.38
2023-09-06T08:34:39.352Z,21.50
2023-09-06T08:37:08.431Z,21.59
2023-09-06T08:39:38.406Z,21.66
2023-09-06T08:42:07.618Z,21.76
2023-09-06T08:44:40.658Z,21.88
2023-09-06T08:47:13.099Z,21.93
2023-09-06T08:49:47.808Z,22.03
2023-09-06T08:52:17.419Z,22.14
2023-09-06T08:54:46.248Z,22.22
2023-09-06T08:57:18.749Z,22.29
2023-09-06T08:59:48.483Z,22.37
2023-09-06T09:02:17.275Z,22.50
2023-09-06T09:04:45.587Z,22.64
2023-09-06T09:07:18.372Z,22.70
2023-09-06T09:10:02.923Z,22.79
2023-09-06T09:12:34.198Z,22.82
2023-09-06T09:15:17.570Z,22.88
2023-09-06T09:20:23.895Z,23.05
2023-09-06T09:22:51.940Z,23.13
2023-09-06T09:25:26.583Z,23.21
2023-09-06T09:27:59.314Z,23.29
2023-09-06T09:30:31.886Z,23.38
2023-09-06T09:33:08.068Z,23.44
2023-09-06T09:35:42.023Z,23.54
2023-09-06T09:38:12.637Z,23.65
2023-09-06T09:40:52.744Z,23.71
2023-09-06T09:43:21.942Z,23.79
2023-09-06T09:45:53.800Z,23.86
2023-09-06T09:48:26.078Z,23.96
2023-09-06T09:50:56.181Z,24.06
2023-09-06T09:53:26.370Z,24.14
2023-09-06T09:55:55.821Z,24.24
2023-09-06T09:58:26.891Z,24.38
2023-09-06T10:01:02.605Z,24.49
2023-09-06T10:03:32.445Z,24.56
2023-09-06T10:06:04.253Z,24.60
2023-09-06T10:08:37.317Z,24.71
2023-09-06T10:11:09.095Z,24.76
2023-09-06T10:13:39.182Z,24.81
2023-09-06T10:16:09.631Z,24.88
2023-09-06T10:18:39.024Z,24.98
2023-09-06T10:21:08.648Z,25.06
2023-09-06T10:23:42.904Z,25.18
2023-09-06T10:26:12.142Z,25.26
2023-09-06T10:28:40.287Z,25.32
2023-09-06T10:31:10.219Z,25.39
2023-09-06T10:33:59.207Z,25.57
2023-09-06T10:36:31.140Z,25.71
2023-09-06T10:39:18.386Z,25.81
2023-09-06T10:42:26.468Z,25.90
2023-09-06T10:45:28.107Z,25.97
2023-09-06T10:48:11.298Z,26.05
2023-09-06T10:50:39.650Z,26.15
2023-09-06T10:53:08.338Z,26.26
2023-09-06T10:55:47.486Z,26.37
2023-09-06T10:58:17.505Z,26.44
2023-09-06T11:00:45.903Z,26.46
2023-09-06T11:03:21.762Z,26.55
2023-09-06T11:05:54.737Z,26.67
2023-09-06T11:08:42.885Z,26.81
2023-09-06T11:11:15.438Z,26.92
2023-09-06T11:13:46.165Z,27.00
2023-09-06T11:16:17.075Z,27.08
2023-09-06T11:18:48.760Z,27.15
2023-09-06T11:21:18.935Z,27.22
2023-09-06T11:23:48.890Z,27.25
2023-09-06T11:26:20.995Z,27.31
2023-09-06T11:28:49.557Z,27.34
2023-09-06T11:31:27.842Z,27.42
2023-09-06T11:34:05.640Z,27.47
2023-09-06T11:36:37.929Z,27.56
2023-09-06T11:39:17.219Z,27.57
2023-09-06T11:41:49.658Z,27.61
2023-09-06T11:44:20.935Z,27.75
2023-09-06T11:46:51.443Z,27.89
2023-09-06T11:49:23.795Z,27.99
2023-09-06T11:51:55.104Z,28.09
2023-09-06T11:54:28.089Z,28.28
2023-09-06T11:56:58.138Z,28.35
2023-09-06T11:59:33.049Z,28.41
2023-09-06T12:02:02.789Z,28.51
2023-09-06T12:04:36.908Z,28.61
2023-09-06T12:07:11.225Z,28.71
2023-09-06T12:09:39.618Z,28.80
2023-09-06T12:12:08.484Z,28.87
2023-09-06T12:14:37.956Z,28.96
2023-09-06T12:17:06.656Z,29.05
2023-09-06T12:19:37.641Z,29.18
2023-09-06T12:22:09.458Z,29.28
2023-09-06T12:24:40.086Z,29.39
2023-09-06T12:27:10.339Z,29.51
2023-09-06T12:29:41.688Z,29.58
2023-09-06T12:32:11.020Z,29.68
2023-09-06T12:34:46.541Z,29.73
2023-09-06T12:37:14.632Z,29.82
2023-09-06T12:39:45.649Z,29.92
2023-09-06T12:42:13.642Z,30.03
2023-09-06T12:44:44.027Z,30.13
2023-09-06T12:47:12.600Z,30.27
2023-09-06T12:49:47.510Z,30.41
2023-09-06T12:52:21.297Z,30.53
2023-09-06T12:54:49.366Z,30.64
2023-09-06T12:57:18.666Z,30.77
2023-09-06T12:59:47.824Z,30.89
2023-09-06T13:02:17.251Z,30.97
2023-09-06T13:04:48.850Z,31.09
2023-09-06T13:07:17.677Z,31.15
2023-09-06T13:09:48.402Z,31.22
2023-09-06T13:12:19.255Z,31.38
2023-09-06T13:14:52.771Z,31.51
2023-09-06T13:17:21.590Z,31.68
2023-09-06T13:19:56.351Z,31.80
2023-09-06T13:22:24.912Z,31.95
2023-09-06T13:24:53.263Z,31.99
2023-09-06T13:27:24.220Z,32.07
2023-09-06T13:29:58.487Z,32.16
2023-09-06T13:32:27.471Z,32.25
2023-09-06T13:34:58.667Z,32.40
2023-09-06T13:37:27.948Z,32.50
2023-09-06T13:39:56.789Z,32.58
2023-09-06T13:42:25.009Z,32.65
2023-09-06T13:44:55.243Z,32.76
2023-09-06T13:47:23.940Z,32.86
2023-09-06T13:49:56.040Z,32.95
2023-09-06T13:52:30.243Z,33.10
2023-09-06T13:55:01.182Z,33.21
2023-09-06T13:57:30.388Z,33.24
2023-09-06T13:59:59.449Z,33.20
2023-09-06T14:02:29.946Z,33.30
2023-09-06T14:04:58.713Z,33.36
2023-09-06T14:07:31.222Z,33.56
2023-09-06T14:09:59.811Z,33.68
2023-09-06T14:12:29.570Z,33.79
2023-09-06T14:14:57.898Z,33.95
2023-09-06T14:17:26.813Z,34.07
2023-09-06T14:19:56.185Z,34.19
2023-09-06T14:22:25.571Z,34.20
2023-09-06T14:24:58.672Z,34.35
2023-09-06T14:27:27.440Z,34.45
2023-09-06T14:29:59.164Z,34.45
2023-09-06T14:32:27.449Z,34.39
2023-09-06T14:34:59.613Z,34.52
2023-09-06T14:37:29.068Z,34.62
2023-09-06T14:39:59.327Z,34.66
2023-09-06T14:42:30.274Z,34.62
2023-09-06T14:44:58.342Z,34.67
2023-09-06T14:47:26.756Z,34.73
2023-09-06T14:49:55.385Z,34.72
2023-09-06T14:52:26.060Z,34.81
2023-09-06T14:54:55.036Z,34.90
2023-09-06T14:57:25.009Z,34.76
2023-09-06T14:59:56.058Z,34.67
2023-09-06T15:02:29.285Z,34.86
2023-09-06T15:05:05.074Z,34.95
2023-09-06T15:07:33.299Z,34.81
2023-09-06T15:10:01.724Z,34.84
2023-09-06T15:12:31.777Z,34.98
2023-09-06T15:15:00.541Z,35.05
2023-09-06T15:17:31.709Z,35.06
2023-09-06T15:20:00.483Z,35.16
2023-09-06T15:22:38.570Z,35.07
2023-09-06T15:25:08.192Z,35.03
2023-09-06T15:27:38.346Z,35.06
2023-09-06T15:30:11.821Z,35.03
2023-09-06T15:32:43.577Z,35.12
2023-09-06T15:35:17.669Z,35.16
2023-09-06T15:38:00.664Z,35.24
2023-09-06T15:40:29.074Z,35.26
2023-09-06T15:42:58.911Z,35.12
2023-09-06T15:45:27.365Z,35.10
2023-09-06T15:47:56.704Z,35.11
2023-09-06T15:50:25.719Z,35.24
2023-09-06T15:52:56.168Z,35.17
2023-09-06T15:55:27.657Z,35.20
2023-09-06T15:57:59.642Z,35.22
2023-09-06T16:00:32.824Z,35.29
2023-09-06T16:03:05.487Z,35.19
2023-09-06T16:05:36.545Z,35.26
2023-09-06T16:08:07.578Z,35.21
2023-09-06T16:10:39.441Z,35.09
2023-09-06T16:13:10.296Z,34.94
2023-09-06T16:15:38.992Z,34.78
2023-09-06T16:18:09.760Z,34.85
2023-09-06T16:20:38.772Z,34.83
2023-09-06T16:23:07.895Z,34.79
2023-09-06T16:25:38.438Z,34.75
2023-09-06T16:28:06.958Z,34.66
2023-09-06T16:30:38.385Z,34.71
2023-09-06T16:33:06.934Z,34.67
2023-09-06T16:35:36.934Z,34.67
2023-09-06T16:38:08.215Z,34.49
2023-09-06T16:40:36.504Z,34.36
2023-09-06T16:43:05.581Z,34.14
2023-09-06T16:45:37.038Z,33.84
2023-09-06T16:48:09.317Z,33.55
2023-09-06T16:50:41.270Z,33.12
2023-09-06T16:53:14.166Z,32.68
2023-09-06T16:55:45.263Z,32.22
2023-09-06T16:58:13.156Z,31.83
2023-09-06T17:00:43.762Z,31.45
2023-09-06T17:03:14.662Z,31.13
2023-09-06T17:05:42.704Z,30.83
2023-09-06T17:08:11.010Z,30.56
2023-09-06T17:10:39.759Z,30.27
2023-09-06T17:13:08.576Z,29.99
2023-09-06T17:15:37.485Z,29.75
2023-09-06T17:18:08.214Z,29.53
2023-09-06T17:20:39.748Z,29.20
2023-09-06T17:23:08.179Z,29.01
2023-09-06T17:25:36.823Z,28.82
2023-09-06T17:28:08.842Z,28.60
2023-09-06T17:30:40.343Z,28.40
2023-09-06T17:33:16.097Z,28.19
2023-09-06T17:35:46.716Z,27.97
2023-09-06T17:38:15.801Z,27.77
2023-09-06T17:40:48.457Z,27.57
2023-09-06T17:43:16.822Z,27.38
2023-09-06T17:45:47.099Z,27.21
2023-09-06T17:48:19.492Z,27.00
2023-09-06T17:50:55.601Z,26.81
2023-09-06T17:53:28.017Z,26.66
2023-09-06T17:56:03.936Z,26.50
2023-09-06T17:58:32.132Z,26.32
2023-09-06T18:01:02.437Z,26.16
2023-09-06T18:03:33.640Z,26.03
2023-09-06T18:06:04.903Z,25.87
2023-09-06T18:08:35.827Z,25.71
2023-09-06T18:11:08.102Z,25.57
2023-09-06T18:13:40.808Z,25.42
2023-09-06T18:16:17.794Z,25.28
2023-09-06T18:18:50.352Z,25.14
2023-09-06T18:21:18.710Z,25.01
2023-09-06T18:23:49.472Z,24.87
2023-09-06T18:26:17.797Z,24.77
2023-09-06T18:28:47.602Z,24.68
2023-09-06T18:31:22.023Z,24.53
2023-09-06T18:33:52.554Z,24.43
2023-09-06T18:36:20.607Z,24.35
2023-09-06T18:38:50.348Z,24.24
2023-09-06T18:41:18.486Z,24.15
2023-09-06T18:43:46.709Z,24.07
2023-09-06T18:46:15.237Z,23.99
2023-09-06T18:48:46.159Z,23.90
2023-09-06T18:51:20.289Z,23.79
2023-09-06T18:53:49.372Z,23.68
2023-09-06T18:56:17.608Z,23.61
2023-09-06T18:58:46.709Z,23.55
2023-09-06T19:01:15.773Z,23.48
2023-09-06T19:03:44.653Z,23.40
2023-09-06T19:06:15.272Z,23.33
2023-09-06T19:08:47.551Z,23.25
2023-09-06T19:11:15.610Z,23.17
2023-09-06T19:13:48.151Z,23.11
2023-09-06T19:16:16.602Z,23.00
2023-09-06T19:18:45.593Z,22.91
2023-09-06T19:21:15.217Z,22.84
2023-09-06T19:23:44.136Z,22.77
2023-09-06T19:26:14.180Z,22.70
2023-09-06T19:28:42.624Z,22.65
2023-09-06T19:31:10.711Z,22.59
2023-09-06T19:33:40.147Z,22.51
2023-09-06T19:36:11.224Z,22.43
2023-09-06T19:38:40.885Z,22.34
2023-09-06T19:41:09.183Z,22.25
2023-09-06T19:43:38.598Z,22.16
2023-09-06T19:46:10.262Z,22.12
2023-09-06T19:48:54.689Z,22.07
2023-09-06T19:51:30.884Z,21.98
2023-09-06T19:54:01.012Z,21.93
2023-09-06T19:56:29.267Z,21.85
2023-09-06T19:59:07.630Z,21.79
2023-09-06T20:01:41.728Z,21.75
2023-09-06T20:04:12.368Z,21.75
2023-09-06T20:06:43.170Z,21.70
2023-09-06T20:09:15.187Z,21.71
2023-09-06T20:11:44.849Z,21.71
2023-09-06T20:14:19.486Z,21.72
2023-09-06T20:16:47.793Z,21.73
2023-09-06T20:19:17.751Z,21.75
2023-09-06T20:21:46.694Z,21.76
2023-09-06T20:24:17.434Z,21.76
2023-09-06T20:26:47.641Z,21.76
2023-09-06T20:29:20.383Z,21.75
2023-09-06T20:31:50.900Z,21.71
2023-09-06T20:34:22.341Z,21.66
2023-09-06T20:36:51.016Z,21.63
2023-09-06T20:39:19.059Z,21.61
2023-09-06T20:41:47.197Z,21.55
2023-09-06T20:44:17.095Z,21.49
2023-09-06T20:46:48.908Z,21.44
2023-09-06T20:49:19.745Z,21.41
2023-09-06T20:51:48.475Z,21.38
2023-09-06T20:54:19.304Z,21.32
2023-09-06T20:56:48.659Z,21.27
2023-09-06T20:59:17.921Z,21.20
2023-09-06T21:01:46.697Z,21.13
2023-09-06T21:04:16.066Z,21.08
2023-09-06T21:06:46.277Z,21.05
2023-09-06T21:09:14.422Z,20.96
2023-09-06T21:11:43.484Z,20.93
2023-09-06T21:14:14.811Z,20.83
2023-09-06T21:16:44.608Z,20.78
2023-09-06T21:19:12.705Z,20.71
2023-09-06T21:21:44.136Z,20.66
2023-09-06T21:24:15.227Z,20.63
2023-09-06T21:26:43.721Z,20.59
2023-09-06T21:29:25.917Z,20.61
2023-09-06T21:31:57.151Z,20.60
2023-09-06T21:34:25.764Z,20.60
2023-09-06T21:36:56.774Z,20.56
2023-09-06T21:39:26.094Z,20.54
2023-09-06T21:41:54.630Z,20.52
2023-09-06T21:44:23.154Z,20.54
2023-09-06T21:46:51.748Z,20.52
2023-09-06T21:49:21.956Z,20.51
2023-09-06T21:51:51.583Z,20.53
2023-09-06T21:54:21.095Z,20.52
2023-09-06T21:56:50.797Z,20.51
2023-09-06T21:59:19.772Z,20.54
2023-09-06T22:01:47.978Z,20.52
2023-09-06T22:04:36.697Z,20.50
2023-09-06T22:07:25.587Z,20.48
2023-09-06T22:10:13.672Z,20.42
2023-09-06T22:13:03.793Z,20.42
2023-09-06T22:15:32.145Z,20.40
2023-09-06T22:18:00.410Z,20.37
2023-09-06T22:20:33.207Z,20.34
2023-09-06T22:23:02.885Z,20.30
2023-09-06T22:25:34.751Z,20.28
2023-09-06T22:28:07.870Z,20.26
2023-09-06T22:30:42.607Z,20.21
2023-09-06T22:33:12.108Z,20.20
2023-09-06T22:35:40.658Z,20.19
2023-09-06T22:38:08.795Z,20.13
2023-09-06T22:40:40.230Z,20.10
2023-09-06T22:43:09.621Z,20.07
2023-09-06T22:45:38.776Z,20.01
2023-09-06T22:48:10.243Z,20.01
2023-09-06T22:50:41.339Z,19.98
2023-09-06T22:53:09.508Z,19.93
2023-09-06T22:55:39.271Z,19.89
2023-09-06T22:58:08.304Z,19.84
2023-09-06T23:00:39.574Z,19.83
2023-09-06T23:03:09.942Z,19.78
2023-09-06T23:05:38.073Z,19.74
2023-09-06T23:08:07.357Z,19.71
2023-09-06T23:10:36.372Z,19.65
2023-09-06T23:13:06.121Z,19.66
2023-09-06T23:15:36.175Z,19.63
2023-09-06T23:18:06.113Z,19.59
2023-09-06T23:20:38.776Z,19.55
2023-09-06T23:23:10.993Z,19.50
2023-09-06T23:25:43.902Z,19.43
2023-09-06T23:28:19.614Z,19.39
2023-09-06T23:30:55.240Z,19.37
2023-09-06T23:33:34.445Z,19.33
2023-09-06T23:36:03.144Z,19.29
2023-09-06T23:38:34.834Z,19.30
2023-09-06T23:41:04.708Z,19.23
2023-09-06T23:43:34.904Z,19.20
2023-09-06T23:46:04.772Z,19.18
2023-09-06T23:48:33.644Z,19.16
2023-09-06T23:51:04.516Z,19.16
2023-09-06T23:53:33.307Z,19.13
2023-09-06T23:56:05.765Z,19.06
2023-09-06T23:58:38.962Z,19.03
